Rocky, Oklahoma
Current Conditions -  °F | °C
As of 5:53 PM on Thursday 27 Nov 2014 (Local Time) from KHBR Reporting Station
Clear Clear  
Wind Chill: 39°   Ceiling: Unl
Heat Index: 44°   Visibility: 10mi
Dew Point: 30°   Wind: 10mph
Humidity: 58%   Direction: 190°S
Pressure: 30.32"   Gusts: NA
Location:  35.16°N, 99.06°W
Report Text: KHBR 272353Z AUTO 19009KT 10SM CLR 07/M01 A3032 RMK AO2 SLP277 T00671011 10100 20067 56017
Loading
Personal Weather Stations






























Interactive Weather Map New forecast layout! Learn more

10-Day Weather Forecast

Advertisements
Track Severe Weather on mobile